createdAt,value
2022-07-25T00:00:14.412Z,100520.23
2022-07-25T00:01:20.722Z,100521.14
2022-07-25T00:02:23.170Z,100515.84
2022-07-25T00:03:25.028Z,100519.38
2022-07-25T00:04:28.793Z,100522.88
2022-07-25T00:05:35.853Z,100514.99
2022-07-25T00:06:34.269Z,100521.14
2022-07-25T00:07:36.143Z,100514.08
2022-07-25T00:08:37.963Z,100522.09
2022-07-25T00:09:39.893Z,100511.55
2022-07-25T00:10:42.046Z,100519.44
2022-07-25T00:11:43.911Z,100511.50
2022-07-25T00:12:46.149Z,100515.91
2022-07-25T00:13:48.007Z,100513.26
2022-07-25T00:14:49.936Z,100516.79
2022-07-25T00:15:51.860Z,100511.50
2022-07-25T00:16:53.812Z,100515.91
2022-07-25T00:17:55.873Z,100513.28
2022-07-25T00:18:57.715Z,100519.52
2022-07-25T00:19:59.635Z,100510.70
2022-07-25T00:21:01.586Z,100504.61
2022-07-25T00:22:03.425Z,100518.70
2022-07-25T00:23:05.259Z,100528.44
2022-07-25T00:24:07.611Z,100512.61
2022-07-25T00:25:09.899Z,100516.11
2022-07-25T00:26:12.064Z,100517.00
2022-07-25T00:27:13.904Z,100515.26
2022-07-25T00:28:15.864Z,100517.00
2022-07-25T00:29:17.719Z,100519.70
2022-07-25T00:30:21.448Z,100521.47
2022-07-25T00:31:23.325Z,100518.82
2022-07-25T00:32:25.202Z,100522.38
2022-07-25T00:33:27.126Z,100524.17
2022-07-25T00:34:28.962Z,100520.67
2022-07-25T00:35:30.825Z,100524.17
2022-07-25T00:36:32.755Z,100520.67
2022-07-25T00:37:34.599Z,100519.78
2022-07-25T00:38:36.470Z,100525.08
2022-07-25T00:39:38.403Z,100522.44
2022-07-25T00:40:40.296Z,100518.14
2022-07-25T00:41:42.442Z,100518.20
2022-07-25T00:42:44.367Z,100513.82
2022-07-25T00:43:46.213Z,100520.91
2022-07-25T00:44:48.051Z,100515.67
2022-07-25T00:45:50.845Z,100517.44
2022-07-25T00:46:52.873Z,100515.73
2022-07-25T00:47:54.764Z,100512.20
2022-07-25T00:48:56.697Z,100515.73
2022-07-25T00:49:58.490Z,100512.20
2022-07-25T00:51:00.519Z,100511.41
2022-07-25T00:52:02.364Z,100507.03
2022-07-25T00:53:04.185Z,100514.11
2022-07-25T00:54:06.513Z,100511.47
2022-07-25T00:55:08.648Z,100508.88
2022-07-25T00:56:11.139Z,100508.03
2022-07-25T00:57:13.002Z,100506.23
2022-07-25T00:58:14.877Z,100504.50
2022-07-25T00:59:16.700Z,100501.91
2022-07-25T01:00:20.373Z,100501.06
2022-07-25T01:01:22.346Z,100501.97
2022-07-25T01:02:24.151Z,100503.70
2022-07-25T01:03:26.072Z,100500.27
2022-07-25T01:04:28.063Z,100505.55
2022-07-25T01:05:29.931Z,100502.91
2022-07-25T01:06:32.484Z,100504.67
2022-07-25T01:07:34.338Z,100509.11
2022-07-25T01:08:36.214Z,100509.96
2022-07-25T01:09:38.075Z,100501.17
2022-07-25T01:10:39.895Z,100508.23
2022-07-25T01:11:41.793Z,100503.82
2022-07-25T01:12:43.651Z,100501.17
2022-07-25T01:13:45.498Z,100503.82
2022-07-25T01:14:47.340Z,100497.64
2022-07-25T01:15:49.254Z,100492.35
2022-07-25T01:16:51.185Z,100497.64
2022-07-25T01:17:53.051Z,100488.00
2022-07-25T01:18:54.898Z,100493.30
2022-07-25T01:19:56.916Z,100490.65
2022-07-25T01:20:58.885Z,100487.18
2022-07-25T01:22:00.826Z,100492.41
2022-07-25T01:23:02.644Z,100486.27
2022-07-25T01:24:04.715Z,100485.36
2022-07-25T01:25:06.757Z,100491.50
2022-07-25T01:26:08.953Z,100486.27
2022-07-25T01:27:17.135Z,100488.86
2022-07-25T01:28:14.487Z,100486.21
2022-07-25T01:29:16.324Z,100483.56
2022-07-25T01:30:18.604Z,100481.77
2022-07-25T01:31:20.536Z,100482.71
2022-07-25T01:32:22.453Z,100480.92
2022-07-25T01:33:24.327Z,100480.92
2022-07-25T01:34:26.192Z,100487.06
2022-07-25T01:35:28.085Z,100488.00
2022-07-25T01:36:29.914Z,100486.21
2022-07-25T01:37:32.532Z,100490.59
2022-07-25T01:38:34.399Z,100488.86
2022-07-25T01:39:36.259Z,100493.23
2022-07-25T01:40:38.179Z,100489.70
2022-07-25T01:41:40.105Z,100492.35
2022-07-25T01:42:42.451Z,100494.14
2022-07-25T01:43:44.268Z,100490.59
2022-07-25T01:44:46.130Z,100495.88
2022-07-25T01:45:48.077Z,100497.64
2022-07-25T01:46:50.247Z,100501.17
2022-07-25T01:47:52.148Z,100494.97
2022-07-25T01:48:54.028Z,100499.44
2022-07-25T01:49:55.854Z,100498.53
2022-07-25T01:50:58.105Z,100496.73
2022-07-25T01:52:01.699Z,100494.14
2022-07-25T01:53:03.574Z,100493.23
2022-07-25T01:54:10.322Z,100488.86
2022-07-25T01:55:09.118Z,100496.80
2022-07-25T01:56:11.685Z,100491.50
2022-07-25T01:57:14.359Z,100492.41
2022-07-25T01:58:16.263Z,100484.53
2022-07-25T01:59:19.544Z,100490.70
2022-07-25T02:00:22.091Z,100485.42
2022-07-25T02:01:24.113Z,100488.97
2022-07-25T02:02:26.305Z,100481.95
2022-07-25T02:03:28.156Z,100481.03
2022-07-25T02:04:30.088Z,100484.59
2022-07-25T02:05:31.962Z,100479.36
2022-07-25T02:06:33.868Z,100483.80
2022-07-25T02:07:35.709Z,100481.16
2022-07-25T02:08:37.600Z,100475.92
2022-07-25T02:09:39.729Z,100481.20
2022-07-25T02:10:41.679Z,100485.59
2022-07-25T02:11:43.544Z,100476.83
2022-07-25T02:12:45.396Z,100483.00
2022-07-25T02:13:47.299Z,100483.00
2022-07-25T02:14:49.169Z,100478.63
2022-07-25T02:15:50.990Z,100476.89
2022-07-25T02:16:52.932Z,100476.89
2022-07-25T02:17:54.778Z,100478.68
2022-07-25T02:18:56.682Z,100481.38
2022-07-25T02:19:58.515Z,100476.09
2022-07-25T02:21:00.330Z,100478.73
2022-07-25T02:22:02.392Z,100477.00
2022-07-25T02:23:04.265Z,100478.80
2022-07-25T02:24:06.449Z,100489.38
2022-07-25T02:25:08.400Z,100487.64
2022-07-25T02:26:11.273Z,100483.23
2022-07-25T02:27:13.136Z,100482.34
2022-07-25T02:28:14.964Z,100483.30
2022-07-25T02:29:16.876Z,100488.58
2022-07-25T02:30:19.355Z,100482.41
2022-07-25T02:31:21.302Z,100483.30
2022-07-25T02:32:23.172Z,100478.06
2022-07-25T02:33:24.997Z,100479.77
2022-07-25T02:34:26.903Z,100478.06
2022-07-25T02:35:28.776Z,100475.41
2022-07-25T02:36:31.136Z,100483.41
2022-07-25T02:37:33.016Z,100479.88
2022-07-25T02:38:34.873Z,100472.83
2022-07-25T02:39:36.740Z,100483.47
2022-07-25T02:40:38.587Z,100476.38
2022-07-25T02:41:40.456Z,100477.29
2022-07-25T02:42:42.323Z,100477.29
2022-07-25T02:43:44.174Z,100472.91
2022-07-25T02:44:46.077Z,100479.08
2022-07-25T02:45:48.009Z,100473.85
2022-07-25T02:46:49.902Z,100475.61
2022-07-25T02:47:51.735Z,100474.77
2022-07-25T02:48:53.682Z,100470.33
2022-07-25T02:49:55.593Z,100470.38
2022-07-25T02:50:57.463Z,100466.88
2022-07-25T02:51:59.332Z,100464.23
2022-07-25T02:53:01.312Z,100468.67
2022-07-25T02:54:03.159Z,100466.88
2022-07-25T02:55:09.564Z,100469.59
2022-07-25T02:56:09.144Z,100469.59
2022-07-25T02:57:11.010Z,100466.09
2022-07-25T02:58:12.856Z,100469.64
2022-07-25T02:59:15.848Z,100467.00
2022-07-25T03:00:19.567Z,100467.84
2022-07-25T03:01:21.511Z,100466.94
2022-07-25T03:02:23.398Z,100464.30
2022-07-25T03:03:25.293Z,100462.50
2022-07-25T03:04:27.374Z,100462.50
2022-07-25T03:05:29.245Z,100464.30
2022-07-25T03:06:31.244Z,100463.39
2022-07-25T03:07:33.090Z,100460.74
2022-07-25T03:08:35.038Z,100461.66
2022-07-25T03:09:36.896Z,100463.50
2022-07-25T03:10:38.866Z,100464.30
2022-07-25T03:11:40.735Z,100469.59
2022-07-25T03:12:42.608Z,100463.45
2022-07-25T03:13:44.487Z,100465.15
2022-07-25T03:14:46.350Z,100466.94
2022-07-25T03:15:48.216Z,100469.59
2022-07-25T03:16:50.141Z,100468.67
2022-07-25T03:17:52.033Z,100465.09
2022-07-25T03:18:53.869Z,100465.97
2022-07-25T03:19:55.861Z,100467.73
2022-07-25T03:20:57.858Z,100465.97
2022-07-25T03:21:59.818Z,100462.45
2022-07-25T03:23:01.660Z,100468.62
2022-07-25T03:24:03.710Z,100466.83
2022-07-25T03:25:05.566Z,100464.18
2022-07-25T03:26:09.619Z,100465.03
2022-07-25T03:27:11.426Z,100468.56
2022-07-25T03:28:13.276Z,100462.33
2022-07-25T03:29:15.145Z,100465.86
2022-07-25T03:30:18.839Z,100464.97
2022-07-25T03:31:20.774Z,100463.16
2022-07-25T03:32:22.630Z,100457.87
2022-07-25T03:33:24.631Z,100464.95
2022-07-25T03:34:26.484Z,100461.42
2022-07-25T03:35:28.332Z,100464.89
2022-07-25T03:36:30.326Z,100465.80
2022-07-25T03:37:32.191Z,100461.36
2022-07-25T03:38:34.047Z,100467.54
2022-07-25T03:39:35.973Z,100457.81
2022-07-25T03:40:38.039Z,100464.89
2022-07-25T03:41:39.913Z,100464.84
2022-07-25T03:42:41.865Z,100467.48
2022-07-25T03:43:43.712Z,100462.19
2022-07-25T03:44:45.544Z,100464.84
2022-07-25T03:45:47.443Z,100466.54
2022-07-25T03:46:49.410Z,100467.42
2022-07-25T03:47:51.284Z,100467.42
2022-07-25T03:48:53.159Z,100465.57
2022-07-25T03:49:55.098Z,100466.48
2022-07-25T03:50:57.069Z,100470.86
2022-07-25T03:51:58.858Z,100465.57
2022-07-25T03:53:00.717Z,100463.89
2022-07-25T03:54:02.760Z,100466.59
2022-07-25T03:55:04.756Z,100467.48
2022-07-25T03:56:06.911Z,100465.69
2022-07-25T03:57:08.833Z,100467.42
2022-07-25T03:58:10.620Z,100463.84
2022-07-25T03:59:12.461Z,100469.06
2022-07-25T04:00:15.305Z,100466.36
2022-07-25T04:01:17.243Z,100466.36
2022-07-25T04:02:21.143Z,100471.66
2022-07-25T04:03:22.997Z,100463.72
2022-07-25T04:04:24.907Z,100470.75
2022-07-25T04:05:26.761Z,100462.92
2022-07-25T04:06:30.135Z,100462.92
2022-07-25T04:07:32.030Z,100469.84
2022-07-25T04:08:33.796Z,100466.25
2022-07-25T04:09:35.632Z,100474.19
2022-07-25T04:10:37.548Z,100462.75
2022-07-25T04:11:39.390Z,100474.24
2022-07-25T04:12:41.285Z,100460.22
2022-07-25T04:13:43.119Z,100460.22
2022-07-25T04:14:44.975Z,100469.78
2022-07-25T04:15:46.839Z,100465.28
2022-07-25T04:16:48.847Z,100471.42
2022-07-25T04:17:51.496Z,100474.95
2022-07-25T04:18:53.735Z,100468.72
2022-07-25T04:19:55.568Z,100469.60
2022-07-25T04:20:58.528Z,100465.16
2022-07-25T04:22:00.396Z,100472.19
2022-07-25T04:23:02.354Z,100476.53
2022-07-25T04:24:04.391Z,100478.27
2022-07-25T04:25:06.462Z,100478.27
2022-07-25T04:26:09.816Z,100476.48
2022-07-25T04:27:11.640Z,100484.39
2022-07-25T04:28:13.417Z,100478.16
2022-07-25T04:29:15.264Z,100480.80
2022-07-25T04:30:24.488Z,100479.04
2022-07-25T04:31:21.122Z,100467.52
2022-07-25T04:32:23.742Z,100470.09
2022-07-25T04:33:25.707Z,100470.04
2022-07-25T04:34:27.552Z,100474.42
2022-07-25T04:35:29.426Z,100473.52
2022-07-25T04:36:31.377Z,100469.92
2022-07-25T04:37:33.246Z,100472.51
2022-07-25T04:38:35.168Z,100471.59
2022-07-25T04:39:37.025Z,100479.48
2022-07-25T04:40:38.971Z,100471.48
2022-07-25T04:41:40.957Z,100472.27
2022-07-25T04:42:42.814Z,100470.50
2022-07-25T04:43:48.523Z,100471.30
2022-07-25T04:44:48.375Z,100480.03
2022-07-25T04:45:50.226Z,100478.27
2022-07-25T04:46:52.162Z,100476.41
2022-07-25T04:47:53.990Z,100479.00
2022-07-25T04:48:55.975Z,100476.29
2022-07-25T04:49:57.819Z,100478.88
2022-07-25T04:50:59.758Z,100476.20
2022-07-25T04:52:01.592Z,100472.64
2022-07-25T04:53:03.428Z,100479.67
2022-07-25T04:54:05.531Z,100478.73
2022-07-25T04:55:07.585Z,100473.38
2022-07-25T04:56:09.795Z,100474.20
2022-07-25T04:57:11.649Z,100475.89
2022-07-25T04:58:13.506Z,100479.48
2022-07-25T04:59:15.385Z,100474.13
2022-07-25T05:00:17.641Z,100471.42
2022-07-25T05:01:19.738Z,100470.48
2022-07-25T05:02:21.686Z,100471.42
2022-07-25T05:03:23.457Z,100474.92
2022-07-25T05:04:25.367Z,100468.84
2022-07-25T05:05:27.215Z,100476.59
2022-07-25T05:06:29.366Z,100473.95
2022-07-25T05:07:31.195Z,100468.59
2022-07-25T05:08:33.090Z,100474.80
2022-07-25T05:09:34.963Z,100469.44
2022-07-25T05:10:36.898Z,100468.53
2022-07-25T05:11:42.482Z,100471.17
2022-07-25T05:12:42.513Z,100476.41
2022-07-25T05:13:44.339Z,100478.14
2022-07-25T05:14:46.211Z,100475.44
2022-07-25T05:15:48.088Z,100470.08
2022-07-25T05:16:50.226Z,100476.22
2022-07-25T05:17:52.147Z,100478.81
2022-07-25T05:18:54.029Z,100474.36
2022-07-25T05:19:55.921Z,100475.25
2022-07-25T05:20:57.907Z,100476.95
2022-07-25T05:22:00.096Z,100471.66
2022-07-25T05:23:02.031Z,100479.53
2022-07-25T05:24:04.637Z,100468.03
2022-07-25T05:25:06.768Z,100474.11
2022-07-25T05:26:08.932Z,100471.47
2022-07-25T05:27:10.826Z,100467.91
2022-07-25T05:28:12.890Z,100466.11
2022-07-25T05:29:14.763Z,100466.05
2022-07-25T05:30:17.789Z,100468.75
2022-07-25T05:31:19.708Z,100466.05
2022-07-25T05:32:21.605Z,100460.75
2022-07-25T05:33:23.500Z,100459.77
2022-07-25T05:34:25.364Z,100459.77
2022-07-25T05:35:27.278Z,100467.71
2022-07-25T05:36:29.441Z,100465.00
2022-07-25T05:37:31.330Z,100460.59
2022-07-25T05:38:33.183Z,100460.52
2022-07-25T05:39:35.063Z,100456.92
2022-07-25T05:40:37.067Z,100451.63
2022-07-25T05:41:38.950Z,100452.52
2022-07-25T05:42:41.622Z,100450.72
2022-07-25T05:43:43.516Z,100452.45
2022-07-25T05:44:45.406Z,100448.00
2022-07-25T05:45:47.472Z,100450.65
2022-07-25T05:46:49.443Z,100445.35
2022-07-25T05:47:51.345Z,100447.09
2022-07-25T05:48:53.244Z,100444.44
2022-07-25T05:49:55.070Z,100439.14
2022-07-25T05:50:57.275Z,100434.63
2022-07-25T05:51:59.156Z,100441.66
2022-07-25T05:53:01.040Z,100439.02
2022-07-25T05:54:03.120Z,100432.77
2022-07-25T05:55:05.063Z,100431.85
2022-07-25T05:56:07.630Z,100430.05
2022-07-25T05:57:09.495Z,100429.14
2022-07-25T05:58:11.373Z,100433.52
2022-07-25T05:59:14.284Z,100426.42
2022-07-25T06:00:16.447Z,100432.50
2022-07-25T06:01:18.550Z,100420.99
2022-07-25T06:02:20.522Z,100428.94
2022-07-25T06:03:22.479Z,100422.80
2022-07-25T06:04:27.282Z,100428.16
2022-07-25T06:05:28.050Z,100430.80
2022-07-25T06:06:29.945Z,100427.27
2022-07-25T06:07:31.834Z,100424.63
2022-07-25T06:08:33.696Z,100427.20
2022-07-25T06:09:35.555Z,100429.00
2022-07-25T06:10:37.507Z,100429.00
2022-07-25T06:11:51.076Z,100424.56
2022-07-25T06:12:43.043Z,100424.56
2022-07-25T06:13:45.332Z,100420.99
2022-07-25T06:14:47.270Z,100428.02
2022-07-25T06:15:49.714Z,100423.58
2022-07-25T06:16:52.365Z,100430.54
2022-07-25T06:17:54.239Z,100426.09
2022-07-25T06:18:56.678Z,100424.26
2022-07-25T06:19:58.558Z,100426.03
2022-07-25T06:21:00.562Z,100420.73
2022-07-25T06:22:02.481Z,100422.53
2022-07-25T06:23:04.336Z,100420.73
2022-07-25T06:24:06.522Z,100418.99
2022-07-25T06:25:08.562Z,100419.81
2022-07-25T06:26:10.820Z,100418.08
2022-07-25T06:27:14.966Z,100418.96
2022-07-25T06:28:18.205Z,100416.25
2022-07-25T06:29:20.034Z,100414.45
2022-07-25T06:30:22.442Z,100419.74
2022-07-25T06:31:24.447Z,100421.48
2022-07-25T06:32:26.293Z,100417.03
2022-07-25T06:33:28.173Z,100421.41
2022-07-25T06:34:29.983Z,100420.53
2022-07-25T06:35:31.858Z,100420.46
2022-07-25T06:36:34.121Z,100425.77
2022-07-25T06:37:36.051Z,100427.50
2022-07-25T06:38:37.920Z,100423.05
2022-07-25T06:39:43.805Z,100419.52
2022-07-25T06:40:43.533Z,100417.71
2022-07-25T06:41:45.367Z,100423.02
2022-07-25T06:42:47.482Z,100417.71
2022-07-25T06:43:49.339Z,100410.64
2022-07-25T06:44:51.225Z,100412.34
2022-07-25T06:45:53.267Z,100399.09
2022-07-25T06:46:55.307Z,100402.63
2022-07-25T06:47:57.280Z,100400.83
2022-07-25T06:48:59.223Z,100406.06
2022-07-25T06:50:01.150Z,100402.63
2022-07-25T06:51:02.982Z,100409.70
2022-07-25T06:52:04.791Z,100405.28
2022-07-25T06:53:06.732Z,100401.68
2022-07-25T06:54:09.181Z,100398.18
2022-07-25T06:55:11.381Z,100397.33
2022-07-25T06:56:17.599Z,100393.86
2022-07-25T06:57:17.147Z,100395.59
2022-07-25T06:58:19.014Z,100395.53
2022-07-25T06:59:22.668Z,100398.18
2022-07-25T07:00:24.648Z,100401.68
2022-07-25T07:01:26.759Z,100393.73
2022-07-25T07:02:28.675Z,100398.18
2022-07-25T07:03:30.574Z,100395.59
2022-07-25T07:04:32.402Z,100403.55
2022-07-25T07:05:34.253Z,100396.52
2022-07-25T07:06:37.006Z,100399.09
2022-07-25T07:07:38.877Z,100393.73
2022-07-25T07:08:40.794Z,100388.36
2022-07-25T07:09:42.711Z,100398.11
2022-07-25T07:10:44.601Z,100391.89
2022-07-25T07:11:46.462Z,100391.95
2022-07-25T07:12:48.289Z,100394.61
2022-07-25T07:13:50.162Z,100395.46
2022-07-25T07:14:52.041Z,100393.66
2022-07-25T07:15:53.934Z,100393.66
2022-07-25T07:16:55.875Z,100398.05
2022-07-25T07:17:57.759Z,100397.97
2022-07-25T07:18:59.640Z,100398.89
2022-07-25T07:20:01.471Z,100399.77
2022-07-25T07:21:03.314Z,100405.86
2022-07-25T07:22:05.282Z,100391.76
2022-07-25T07:23:08.953Z,100404.94
2022-07-25T07:24:23.876Z,100396.92
2022-07-25T07:25:15.624Z,100400.42
2022-07-25T07:26:19.288Z,100401.23
2022-07-25T07:27:21.129Z,100404.73
2022-07-25T07:28:22.973Z,100402.02
2022-07-25T07:29:24.876Z,100401.09
2022-07-25T07:30:50.591Z,100402.80
2022-07-25T07:31:31.986Z,100406.33
2022-07-25T07:32:34.002Z,100401.88
2022-07-25T07:33:35.843Z,100406.27
2022-07-25T07:34:37.722Z,100405.38
2022-07-25T07:35:39.560Z,100410.69
2022-07-25T07:36:41.397Z,100407.11
2022-07-25T07:37:43.894Z,100408.84
2022-07-25T07:38:45.754Z,100410.55
2022-07-25T07:39:47.647Z,100407.05
2022-07-25T07:40:49.611Z,100411.43
2022-07-25T07:41:51.819Z,100413.13
2022-07-25T07:42:53.672Z,100406.91
2022-07-25T07:43:55.616Z,100413.06
2022-07-25T07:44:57.490Z,100413.94
2022-07-25T07:45:59.543Z,100412.14
2022-07-25T07:47:01.520Z,100411.22
2022-07-25T07:48:03.398Z,100404.97
2022-07-25T07:49:05.556Z,100406.70
2022-07-25T07:50:07.970Z,100412.86
2022-07-25T07:51:09.834Z,100413.73
2022-07-25T07:52:11.665Z,100407.48
2022-07-25T07:53:13.525Z,100411.02
2022-07-25T07:54:15.396Z,100407.48
2022-07-25T07:55:17.265Z,100406.56
2022-07-25T07:56:20.242Z,100411.87
2022-07-25T07:57:22.090Z,100410.95
2022-07-25T07:58:23.922Z,100417.95
2022-07-25T07:59:25.770Z,100408.23
2022-07-25T08:00:29.489Z,100408.23
2022-07-25T08:01:31.691Z,100404.66
2022-07-25T08:02:33.723Z,100406.36
2022-07-25T08:03:35.793Z,100405.44
2022-07-25T08:04:37.650Z,100403.63
2022-07-25T08:05:39.558Z,100403.63
2022-07-25T08:06:41.524Z,100403.63
2022-07-25T08:07:43.376Z,100409.75
2022-07-25T08:08:45.238Z,100407.95
2022-07-25T08:09:47.104Z,100406.14
2022-07-25T08:10:49.212Z,100407.95
2022-07-25T08:11:51.083Z,100411.45
2022-07-25T08:12:53.001Z,100404.38
2022-07-25T08:13:54.812Z,100400.77
2022-07-25T08:14:56.694Z,100398.12
2022-07-25T08:15:58.653Z,100403.36
2022-07-25T08:17:00.560Z,100413.05
2022-07-25T08:18:02.391Z,100413.89
2022-07-25T08:19:04.611Z,100406.82
2022-07-25T08:20:27.948Z,100412.97
2022-07-25T08:21:11.103Z,100416.41
2022-07-25T08:22:12.956Z,100410.18
2022-07-25T08:23:15.129Z,100411.91
2022-07-25T08:24:17.002Z,100413.61
2022-07-25T08:25:18.864Z,100413.61
2022-07-25T08:26:22.851Z,100410.89
2022-07-25T08:27:24.735Z,100415.27
2022-07-25T08:28:26.578Z,100414.35
2022-07-25T08:29:28.471Z,100414.35
2022-07-25T08:30:31.287Z,100417.78
2022-07-25T08:31:33.257Z,100412.48
2022-07-25T08:32:35.154Z,100417.71
2022-07-25T08:33:37.007Z,100422.09
2022-07-25T08:34:38.891Z,100416.80
2022-07-25T08:35:40.873Z,100416.80
2022-07-25T08:36:42.872Z,100417.57
2022-07-25T08:37:44.710Z,100415.80
2022-07-25T08:38:46.573Z,100419.30
2022-07-25T08:39:48.423Z,100421.88
2022-07-25T08:40:50.401Z,100420.92
2022-07-25T08:41:52.297Z,100422.63
2022-07-25T08:42:54.155Z,100423.50
2022-07-25T08:43:55.997Z,100427.78
2022-07-25T08:44:57.878Z,100425.06
2022-07-25T08:45:59.747Z,100417.98
2022-07-25T08:47:01.597Z,100419.69
2022-07-25T08:48:03.434Z,100426.72
2022-07-25T08:49:05.294Z,100424.84
2022-07-25T08:50:07.614Z,100414.16
2022-07-25T08:51:09.605Z,100419.43
2022-07-25T08:52:11.549Z,100418.48
2022-07-25T08:54:17.043Z,100421.06
2022-07-25T08:55:18.864Z,100417.48
2022-07-25T08:56:21.591Z,100414.83
2022-07-25T08:57:23.509Z,100415.67
2022-07-25T08:58:25.349Z,100416.48
2022-07-25T08:59:27.191Z,100414.69
2022-07-25T09:00:30.916Z,100412.88
2022-07-25T09:01:35.030Z,100411.88
2022-07-25T09:02:36.822Z,100418.92
2022-07-25T09:03:38.681Z,100417.05
2022-07-25T09:04:40.552Z,100418.78
2022-07-25T09:05:42.484Z,100411.66
2022-07-25T09:06:44.447Z,100410.74
2022-07-25T09:07:48.185Z,100413.32
2022-07-25T09:08:50.068Z,100415.83
2022-07-25T09:09:51.931Z,100415.83
2022-07-25T09:10:53.899Z,100409.56
2022-07-25T09:11:55.753Z,100416.61
2022-07-25T09:12:57.670Z,100413.03
2022-07-25T09:13:59.522Z,100414.69
2022-07-25T09:15:01.371Z,100408.50
2022-07-25T09:16:03.585Z,100404.07
2022-07-25T09:17:05.371Z,100402.19
2022-07-25T09:18:08.759Z,100403.92
2022-07-25T09:19:11.935Z,100405.62
2022-07-25T09:20:18.401Z,100399.38
2022-07-25T09:21:18.750Z,100401.05
2022-07-25T09:22:20.583Z,100400.09
2022-07-25T09:23:22.509Z,100398.23
2022-07-25T09:24:24.331Z,100398.23
2022-07-25T09:25:26.166Z,100399.09
2022-07-25T09:26:29.838Z,100395.51
2022-07-25T09:27:32.108Z,100398.09
2022-07-25T09:28:33.982Z,100396.28
2022-07-25T09:29:35.835Z,100397.94
2022-07-25T09:30:37.670Z,100396.98
2022-07-25T09:31:39.605Z,100396.98
2022-07-25T09:32:41.462Z,100391.59
2022-07-25T09:33:43.396Z,100398.56
2022-07-25T09:34:45.218Z,100394.13
2022-07-25T09:35:47.086Z,100387.86
2022-07-25T09:36:49.099Z,100385.20
2022-07-25T09:37:50.946Z,100395.75
2022-07-25T09:38:52.851Z,100390.36
2022-07-25T09:39:54.682Z,100389.39
2022-07-25T09:40:56.857Z,100391.97
2022-07-25T09:41:58.679Z,100389.24
2022-07-25T09:43:00.508Z,100389.16
2022-07-25T09:44:02.531Z,100388.16
2022-07-25T09:45:04.367Z,100389.86
2022-07-25T09:46:06.394Z,100385.42
2022-07-25T09:47:08.301Z,100383.55
2022-07-25T09:48:10.169Z,100381.66
2022-07-25T09:49:12.093Z,100383.31
2022-07-25T09:50:15.230Z,100385.04
2022-07-25T09:51:17.061Z,100380.58
2022-07-25T09:52:19.001Z,100375.34
2022-07-25T09:53:20.890Z,100379.50
2022-07-25T09:54:22.809Z,100374.10
2022-07-25T09:55:24.668Z,100373.95
2022-07-25T09:56:26.841Z,100377.38
2022-07-25T09:57:28.692Z,100375.44
2022-07-25T09:58:30.555Z,100370.90
2022-07-25T09:59:32.459Z,100380.52
2022-07-25T10:00:34.386Z,100379.59
2022-07-25T10:01:36.341Z,100377.62
2022-07-25T10:02:38.637Z,100378.47
2022-07-25T10:03:40.540Z,100376.53
2022-07-25T10:04:42.466Z,100379.96
2022-07-25T10:05:44.306Z,100368.41
2022-07-25T10:06:46.256Z,100377.14
2022-07-25T10:07:48.160Z,100371.83
2022-07-25T10:08:50.019Z,100385.03
2022-07-25T10:09:51.910Z,100376.22
2022-07-25T10:10:53.781Z,100368.24
2022-07-25T10:11:55.643Z,100366.52
2022-07-25T10:12:57.507Z,100373.48
2022-07-25T10:13:59.365Z,100372.44
2022-07-25T10:15:01.236Z,100365.27
2022-07-25T10:16:03.213Z,100373.92
2022-07-25T10:17:05.259Z,100371.19
2022-07-25T10:18:07.126Z,100370.17
2022-07-25T10:19:08.951Z,100374.52
2022-07-25T10:20:11.509Z,100376.13
2022-07-25T10:21:25.547Z,100376.93
2022-07-25T10:22:25.892Z,100373.22
2022-07-25T10:23:21.342Z,100379.34
2022-07-25T10:24:23.189Z,100372.13
2022-07-25T10:25:25.119Z,100378.30
2022-07-25T10:26:28.807Z,100380.02
2022-07-25T10:27:30.668Z,100366.73
2022-07-25T10:28:32.531Z,100372.05
2022-07-25T10:29:34.365Z,100369.47
2022-07-25T10:30:36.344Z,100380.02
2022-07-25T10:31:38.240Z,100367.58
2022-07-25T10:32:40.120Z,100371.12
2022-07-25T10:33:41.945Z,100371.03
2022-07-25T10:34:43.821Z,100379.86
2022-07-25T10:35:45.726Z,100381.51
2022-07-25T10:36:47.663Z,100373.53
2022-07-25T10:37:49.534Z,100377.92
2022-07-25T10:38:51.471Z,100382.27
2022-07-25T10:39:53.322Z,100382.27
2022-07-25T10:40:55.189Z,100383.23
2022-07-25T10:41:57.028Z,100380.58
2022-07-25T10:42:58.865Z,100380.50
2022-07-25T10:44:00.738Z,100376.88
2022-07-25T10:45:02.668Z,100380.41
2022-07-25T10:46:04.730Z,100389.32
2022-07-25T10:47:07.975Z,100387.59
2022-07-25T10:48:09.809Z,100393.88
2022-07-25T10:49:12.358Z,100393.88
2022-07-25T10:50:34.377Z,100391.21
2022-07-25T10:51:20.311Z,100390.33
2022-07-25T10:52:22.182Z,100384.93
2022-07-25T10:53:24.028Z,100393.88
2022-07-25T10:54:26.432Z,100391.30
2022-07-25T10:55:28.278Z,100388.72
2022-07-25T10:56:30.484Z,100391.45
2022-07-25T10:57:32.453Z,100393.23
2022-07-25T10:58:34.367Z,100392.39
2022-07-25T10:59:36.277Z,100388.93
2022-07-25T11:00:38.112Z,100381.84
2022-07-25T11:01:40.214Z,100385.34
2022-07-25T11:02:42.114Z,100395.98
2022-07-25T11:03:44.028Z,100393.32
2022-07-25T11:04:45.901Z,100391.59
2022-07-25T11:05:47.816Z,100395.21
2022-07-25T11:06:50.346Z,100393.48
2022-07-25T11:08:19.175Z,100390.06
2022-07-25T11:08:55.857Z,100392.80
2022-07-25T11:09:57.812Z,100395.38
2022-07-25T11:10:59.643Z,100395.45
2022-07-25T11:12:01.527Z,100395.45
2022-07-25T11:13:03.390Z,100393.81
2022-07-25T11:14:05.268Z,100391.23
2022-07-25T11:15:07.144Z,100392.95
2022-07-25T11:16:09.252Z,100387.73
2022-07-25T11:17:11.201Z,100389.58
2022-07-25T11:18:13.129Z,100378.10
2022-07-25T11:19:15.009Z,100384.34
2022-07-25T11:20:18.195Z,100379.16
2022-07-25T11:21:20.431Z,100380.97
2022-07-25T11:22:23.030Z,100376.66
2022-07-25T11:23:24.914Z,100375.89
2022-07-25T11:24:27.069Z,100374.17
2022-07-25T11:25:28.961Z,100364.38
2022-07-25T11:26:31.202Z,100364.38
2022-07-25T11:27:33.156Z,100363.53
2022-07-25T11:28:34.983Z,100363.61
2022-07-25T11:29:36.935Z,100359.14
2022-07-25T11:30:39.474Z,100358.30
2022-07-25T11:31:41.381Z,100348.59
2022-07-25T11:32:43.303Z,100355.64
2022-07-25T11:33:45.515Z,100354.71
2022-07-25T11:34:47.372Z,100353.75
2022-07-25T11:35:49.255Z,100360.72
2022-07-25T11:36:51.199Z,100352.73
2022-07-25T11:37:53.133Z,100357.05
2022-07-25T11:38:55.174Z,100363.13
2022-07-25T11:39:57.079Z,100361.35
2022-07-25T11:40:59.715Z,100358.70
2022-07-25T11:42:01.682Z,100353.38
2022-07-25T11:43:03.560Z,100356.88
2022-07-25T11:44:05.436Z,100359.54
2022-07-25T11:45:07.288Z,100352.45
2022-07-25T11:46:09.538Z,100355.98
2022-07-25T11:47:11.416Z,100346.20
2022-07-25T11:48:13.314Z,100349.79
2022-07-25T11:49:15.271Z,100345.36